sensor_id;sensor_type;location;lat;lon;timestamp;P1;durP1;ratioP1;P2;durP2;ratioP2
47259;SDS011;32999;52.412;4.890;2022-10-31T00:04:14;3.65;;;2.00;;
47259;SDS011;32999;52.412;4.890;2022-10-31T00:09:16;6.28;;;2.20;;
47259;SDS011;32999;52.412;4.890;2022-10-31T00:14:19;2.72;;;1.75;;
47259;SDS011;32999;52.412;4.890;2022-10-31T00:19:20;4.10;;;1.77;;
47259;SDS011;32999;52.412;4.890;2022-10-31T00:24:22;3.38;;;1.60;;
47259;SDS011;32999;52.412;4.890;2022-10-31T00:29:25;4.15;;;1.80;;
47259;SDS011;32999;52.412;4.890;2022-10-31T00:34:27;4.97;;;2.15;;
47259;SDS011;32999;52.412;4.890;2022-10-31T00:39:28;3.35;;;1.83;;
47259;SDS011;32999;52.412;4.890;2022-10-31T00:44:31;2.35;;;1.83;;
47259;SDS011;32999;52.412;4.890;2022-10-31T00:49:33;5.65;;;2.30;;
47259;SDS011;32999;52.412;4.890;2022-10-31T00:54:34;4.78;;;2.50;;
47259;SDS011;32999;52.412;4.890;2022-10-31T00:59:37;4.10;;;2.08;;
47259;SDS011;32999;52.412;4.890;2022-10-31T01:04:39;5.55;;;2.65;;
47259;SDS011;32999;52.412;4.890;2022-10-31T01:09:41;4.13;;;2.35;;
47259;SDS011;32999;52.412;4.890;2022-10-31T01:14:44;4.63;;;2.30;;
47259;SDS011;32999;52.412;4.890;2022-10-31T01:19:46;4.68;;;2.33;;
47259;SDS011;32999;52.412;4.890;2022-10-31T01:24:48;4.55;;;2.70;;
47259;SDS011;32999;52.412;4.890;2022-10-31T01:29:51;3.53;;;2.20;;
47259;SDS011;32999;52.412;4.890;2022-10-31T01:34:53;4.65;;;2.42;;
47259;SDS011;32999;52.412;4.890;2022-10-31T01:39:55;5.25;;;2.83;;
47259;SDS011;32999;52.412;4.890;2022-10-31T01:44:59;7.43;;;2.95;;
47259;SDS011;32999;52.412;4.890;2022-10-31T01:50:03;6.28;;;2.60;;
47259;SDS011;32999;52.412;4.890;2022-10-31T01:55:11;5.40;;;2.58;;
47259;SDS011;32999;52.412;4.890;2022-10-31T02:00:16;3.67;;;2.50;;
47259;SDS011;32999;52.412;4.890;2022-10-31T02:05:20;5.35;;;3.25;;
47259;SDS011;32999;52.412;4.890;2022-10-31T02:10:24;5.93;;;2.95;;
47259;SDS011;32999;52.412;4.890;2022-10-31T02:15:29;4.20;;;2.37;;
47259;SDS011;32999;52.412;4.890;2022-10-31T02:25:45;7.22;;;2.88;;
47259;SDS011;32999;52.412;4.890;2022-10-31T02:31:08;6.47;;;3.35;;
47259;SDS011;32999;52.412;4.890;2022-10-31T02:36:21;5.70;;;2.95;;
47259;SDS011;32999;52.412;4.890;2022-10-31T02:41:29;6.22;;;2.78;;
47259;SDS011;32999;52.412;4.890;2022-10-31T02:46:39;8.85;;;3.55;;
47259;SDS011;32999;52.412;4.890;2022-10-31T02:51:49;4.75;;;3.33;;
47259;SDS011;32999;52.412;4.890;2022-10-31T02:56:53;6.28;;;3.20;;
47259;SDS011;32999;52.412;4.890;2022-10-31T03:02:07;6.65;;;3.70;;
47259;SDS011;32999;52.412;4.890;2022-10-31T03:07:21;7.22;;;3.33;;
47259;SDS011;32999;52.412;4.890;2022-10-31T03:12:30;11.55;;;3.33;;
47259;SDS011;32999;52.412;4.890;2022-10-31T03:17:43;7.90;;;3.42;;
47259;SDS011;32999;52.412;4.890;2022-10-31T03:22:53;5.85;;;3.38;;
47259;SDS011;32999;52.412;4.890;2022-10-31T03:27:56;6.45;;;4.47;;
47259;SDS011;32999;52.412;4.890;2022-10-31T03:33:02;7.43;;;4.40;;
47259;SDS011;32999;52.412;4.890;2022-10-31T03:38:08;6.20;;;4.25;;
47259;SDS011;32999;52.412;4.890;2022-10-31T03:43:13;8.63;;;4.60;;
47259;SDS011;32999;52.412;4.890;2022-10-31T03:48:19;7.00;;;4.10;;
47259;SDS011;32999;52.412;4.890;2022-10-31T03:53:22;7.90;;;4.05;;
47259;SDS011;32999;52.412;4.890;2022-10-31T03:58:31;8.80;;;4.38;;
47259;SDS011;32999;52.412;4.890;2022-10-31T04:03:38;5.40;;;4.05;;
47259;SDS011;32999;52.412;4.890;2022-10-31T04:08:41;6.28;;;4.40;;
47259;SDS011;32999;52.412;4.890;2022-10-31T04:13:47;9.27;;;4.80;;
47259;SDS011;32999;52.412;4.890;2022-10-31T04:18:51;9.32;;;5.40;;
47259;SDS011;32999;52.412;4.890;2022-10-31T04:23:53;10.27;;;6.65;;
47259;SDS011;32999;52.412;4.890;2022-10-31T04:28:55;11.30;;;7.53;;
47259;SDS011;32999;52.412;4.890;2022-10-31T04:33:58;14.50;;;8.27;;
47259;SDS011;32999;52.412;4.890;2022-10-31T04:39:00;12.27;;;7.95;;
47259;SDS011;32999;52.412;4.890;2022-10-31T04:44:01;12.65;;;9.05;;
47259;SDS011;32999;52.412;4.890;2022-10-31T04:49:04;17.33;;;10.80;;
47259;SDS011;32999;52.412;4.890;2022-10-31T04:54:06;17.00;;;10.55;;
47259;SDS011;32999;52.412;4.890;2022-10-31T04:59:08;19.90;;;11.55;;
47259;SDS011;32999;52.412;4.890;2022-10-31T05:04:11;16.33;;;10.80;;
47259;SDS011;32999;52.412;4.890;2022-10-31T05:09:13;15.77;;;11.20;;
47259;SDS011;32999;52.412;4.890;2022-10-31T05:14:15;17.13;;;11.63;;
47259;SDS011;32999;52.412;4.890;2022-10-31T05:19:18;18.75;;;11.50;;
47259;SDS011;32999;52.412;4.890;2022-10-31T05:24:20;19.42;;;12.30;;
47259;SDS011;32999;52.412;4.890;2022-10-31T05:29:21;21.60;;;13.13;;
47259;SDS011;32999;52.412;4.890;2022-10-31T05:34:24;20.20;;;13.23;;
47259;SDS011;32999;52.412;4.890;2022-10-31T05:39:26;24.40;;;14.75;;
47259;SDS011;32999;52.412;4.890;2022-10-31T05:44:28;19.75;;;13.40;;
47259;SDS011;32999;52.412;4.890;2022-10-31T05:49:31;26.30;;;14.75;;
47259;SDS011;32999;52.412;4.890;2022-10-31T05:54:33;26.45;;;14.85;;
47259;SDS011;32999;52.412;4.890;2022-10-31T05:59:34;23.77;;;13.85;;
47259;SDS011;32999;52.412;4.890;2022-10-31T06:04:38;18.52;;;12.48;;
47259;SDS011;32999;52.412;4.890;2022-10-31T06:09:39;21.63;;;12.55;;
47259;SDS011;32999;52.412;4.890;2022-10-31T06:14:41;21.65;;;12.43;;
47259;SDS011;32999;52.412;4.890;2022-10-31T06:19:44;20.75;;;12.68;;
47259;SDS011;32999;52.412;4.890;2022-10-31T06:24:46;21.10;;;12.57;;
47259;SDS011;32999;52.412;4.890;2022-10-31T06:29:47;20.40;;;11.77;;
47259;SDS011;32999;52.412;4.890;2022-10-31T06:34:50;17.77;;;11.32;;
47259;SDS011;32999;52.412;4.890;2022-10-31T06:39:52;21.02;;;12.73;;
47259;SDS011;32999;52.412;4.890;2022-10-31T06:44:54;20.48;;;12.18;;
47259;SDS011;32999;52.412;4.890;2022-10-31T06:49:57;19.45;;;12.52;;
47259;SDS011;32999;52.412;4.890;2022-10-31T06:54:58;19.75;;;12.15;;
47259;SDS011;32999;52.412;4.890;2022-10-31T07:00:00;21.88;;;11.90;;
47259;SDS011;32999;52.412;4.890;2022-10-31T07:05:03;24.48;;;13.02;;
47259;SDS011;32999;52.412;4.890;2022-10-31T07:10:06;23.90;;;13.40;;
47259;SDS011;32999;52.412;4.890;2022-10-31T07:15:08;23.05;;;12.40;;
47259;SDS011;32999;52.412;4.890;2022-10-31T07:20:11;24.17;;;13.77;;
47259;SDS011;32999;52.412;4.890;2022-10-31T07:25:13;27.42;;;14.60;;
47259;SDS011;32999;52.412;4.890;2022-10-31T07:30:15;24.92;;;14.15;;
47259;SDS011;32999;52.412;4.890;2022-10-31T07:35:21;27.35;;;15.10;;
47259;SDS011;32999;52.412;4.890;2022-10-31T07:40:24;27.52;;;15.00;;
47259;SDS011;32999;52.412;4.890;2022-10-31T07:45:26;23.88;;;15.32;;
47259;SDS011;32999;52.412;4.890;2022-10-31T07:50:29;24.90;;;14.15;;
47259;SDS011;32999;52.412;4.890;2022-10-31T07:55:33;24.00;;;14.52;;
47259;SDS011;32999;52.412;4.890;2022-10-31T08:00:36;25.77;;;14.30;;
47259;SDS011;32999;52.412;4.890;2022-10-31T08:05:40;25.13;;;14.23;;
47259;SDS011;32999;52.412;4.890;2022-10-31T08:10:44;24.88;;;14.75;;
47259;SDS011;32999;52.412;4.890;2022-10-31T08:15:46;25.33;;;13.68;;
47259;SDS011;32999;52.412;4.890;2022-10-31T08:20:53;22.80;;;12.53;;
47259;SDS011;32999;52.412;4.890;2022-10-31T08:25:54;26.80;;;14.32;;
47259;SDS011;32999;52.412;4.890;2022-10-31T08:30:58;19.08;;;11.57;;
47259;SDS011;32999;52.412;4.890;2022-10-31T08:36:01;21.52;;;12.77;;
47259;SDS011;32999;52.412;4.890;2022-10-31T08:41:03;18.45;;;12.20;;
47259;SDS011;32999;52.412;4.890;2022-10-31T08:46:04;21.35;;;11.00;;
47259;SDS011;32999;52.412;4.890;2022-10-31T08:51:08;16.67;;;10.52;;
47259;SDS011;32999;52.412;4.890;2022-10-31T08:56:10;16.13;;;10.85;;
47259;SDS011;32999;52.412;4.890;2022-10-31T09:01:12;14.88;;;9.27;;
47259;SDS011;32999;52.412;4.890;2022-10-31T09:06:15;16.50;;;9.80;;
47259;SDS011;32999;52.412;4.890;2022-10-31T09:11:17;16.50;;;8.70;;
47259;SDS011;32999;52.412;4.890;2022-10-31T09:16:18;14.73;;;8.52;;
47259;SDS011;32999;52.412;4.890;2022-10-31T09:21:22;16.35;;;8.65;;
47259;SDS011;32999;52.412;4.890;2022-10-31T09:26:23;12.75;;;8.13;;
47259;SDS011;32999;52.412;4.890;2022-10-31T09:31:25;12.90;;;8.27;;
47259;SDS011;32999;52.412;4.890;2022-10-31T09:36:28;13.63;;;8.25;;
47259;SDS011;32999;52.412;4.890;2022-10-31T09:41:32;12.57;;;7.45;;
47259;SDS011;32999;52.412;4.890;2022-10-31T09:46:50;21.52;;;8.35;;
47259;SDS011;32999;52.412;4.890;2022-10-31T09:52:01;12.45;;;7.47;;
47259;SDS011;32999;52.412;4.890;2022-10-31T09:57:10;16.10;;;8.98;;
47259;SDS011;32999;52.412;4.890;2022-10-31T10:02:16;14.73;;;9.85;;
47259;SDS011;32999;52.412;4.890;2022-10-31T10:07:24;20.13;;;10.73;;
47259;SDS011;32999;52.412;4.890;2022-10-31T10:12:37;19.20;;;10.35;;
47259;SDS011;32999;52.412;4.890;2022-10-31T10:17:53;19.23;;;10.23;;
47259;SDS011;32999;52.412;4.890;2022-10-31T10:23:11;17.10;;;10.63;;
47259;SDS011;32999;52.412;4.890;2022-10-31T10:28:26;24.25;;;12.15;;
47259;SDS011;32999;52.412;4.890;2022-10-31T10:33:38;18.77;;;11.32;;
47259;SDS011;32999;52.412;4.890;2022-10-31T10:38:49;15.30;;;9.63;;
47259;SDS011;32999;52.412;4.890;2022-10-31T10:43:52;16.77;;;9.98;;
47259;SDS011;32999;52.412;4.890;2022-10-31T10:48:56;18.10;;;10.52;;
47259;SDS011;32999;52.412;4.890;2022-10-31T10:54:11;19.60;;;10.38;;
47259;SDS011;32999;52.412;4.890;2022-10-31T10:59:22;15.73;;;9.40;;
47259;SDS011;32999;52.412;4.890;2022-10-31T11:04:31;14.43;;;7.75;;
47259;SDS011;32999;52.412;4.890;2022-10-31T11:09:35;13.23;;;7.25;;
47259;SDS011;32999;52.412;4.890;2022-10-31T11:19:45;11.18;;;6.32;;
47259;SDS011;32999;52.412;4.890;2022-10-31T11:24:48;10.65;;;5.88;;
47259;SDS011;32999;52.412;4.890;2022-10-31T11:29:50;14.70;;;5.82;;
47259;SDS011;32999;52.412;4.890;2022-10-31T11:34:52;9.55;;;4.97;;
47259;SDS011;32999;52.412;4.890;2022-10-31T11:39:58;8.73;;;3.80;;
47259;SDS011;32999;52.412;4.890;2022-10-31T11:45:01;10.27;;;5.13;;
47259;SDS011;32999;52.412;4.890;2022-10-31T11:50:09;8.60;;;4.72;;
47259;SDS011;32999;52.412;4.890;2022-10-31T11:55:25;6.90;;;4.57;;
47259;SDS011;32999;52.412;4.890;2022-10-31T12:00:33;9.50;;;4.72;;
47259;SDS011;32999;52.412;4.890;2022-10-31T12:05:41;12.57;;;5.78;;
47259;SDS011;32999;52.412;4.890;2022-10-31T12:10:50;10.00;;;4.50;;
47259;SDS011;32999;52.412;4.890;2022-10-31T12:15:59;8.80;;;4.80;;
47259;SDS011;32999;52.412;4.890;2022-10-31T12:21:11;12.75;;;5.70;;
47259;SDS011;32999;52.412;4.890;2022-10-31T12:26:25;8.40;;;5.75;;
47259;SDS011;32999;52.412;4.890;2022-10-31T12:31:37;10.77;;;6.05;;
47259;SDS011;32999;52.412;4.890;2022-10-31T12:36:49;11.63;;;6.85;;
47259;SDS011;32999;52.412;4.890;2022-10-31T12:42:04;18.75;;;9.18;;
47259;SDS011;32999;52.412;4.890;2022-10-31T12:47:39;17.88;;;9.95;;
47259;SDS011;32999;52.412;4.890;2022-10-31T12:53:00;19.83;;;10.65;;
47259;SDS011;32999;52.412;4.890;2022-10-31T12:58:17;22.40;;;14.23;;
47259;SDS011;32999;52.412;4.890;2022-10-31T13:03:25;24.17;;;12.98;;
47259;SDS011;32999;52.412;4.890;2022-10-31T13:08:34;18.65;;;11.48;;
47259;SDS011;32999;52.412;4.890;2022-10-31T13:13:42;20.95;;;13.02;;
47259;SDS011;32999;52.412;4.890;2022-10-31T13:19:04;22.00;;;11.52;;
47259;SDS011;32999;52.412;4.890;2022-10-31T13:24:12;24.02;;;13.93;;
47259;SDS011;32999;52.412;4.890;2022-10-31T13:29:20;27.15;;;14.18;;
47259;SDS011;32999;52.412;4.890;2022-10-31T13:34:28;27.92;;;12.95;;
47259;SDS011;32999;52.412;4.890;2022-10-31T13:39:39;21.15;;;13.38;;
47259;SDS011;32999;52.412;4.890;2022-10-31T13:44:51;22.30;;;13.15;;
47259;SDS011;32999;52.412;4.890;2022-10-31T13:50:03;21.17;;;13.98;;
47259;SDS011;32999;52.412;4.890;2022-10-31T13:55:07;20.47;;;11.87;;
47259;SDS011;32999;52.412;4.890;2022-10-31T14:00:41;19.98;;;10.95;;
47259;SDS011;32999;52.412;4.890;2022-10-31T14:05:43;22.17;;;11.02;;
47259;SDS011;32999;52.412;4.890;2022-10-31T14:10:54;22.05;;;12.55;;
47259;SDS011;32999;52.412;4.890;2022-10-31T14:15:59;24.23;;;13.73;;
47259;SDS011;32999;52.412;4.890;2022-10-31T14:21:12;22.73;;;11.60;;
47259;SDS011;32999;52.412;4.890;2022-10-31T14:26:21;22.20;;;13.02;;
47259;SDS011;32999;52.412;4.890;2022-10-31T14:31:36;29.65;;;13.60;;
47259;SDS011;32999;52.412;4.890;2022-10-31T14:36:42;36.47;;;13.98;;
47259;SDS011;32999;52.412;4.890;2022-10-31T14:41:58;26.88;;;13.65;;
47259;SDS011;32999;52.412;4.890;2022-10-31T14:47:16;22.95;;;13.05;;
47259;SDS011;32999;52.412;4.890;2022-10-31T14:52:25;27.48;;;14.40;;
47259;SDS011;32999;52.412;4.890;2022-10-31T14:57:28;30.10;;;14.40;;
47259;SDS011;32999;52.412;4.890;2022-10-31T15:02:37;27.30;;;13.38;;
47259;SDS011;32999;52.412;4.890;2022-10-31T15:07:48;27.55;;;14.05;;
47259;SDS011;32999;52.412;4.890;2022-10-31T15:12:52;26.75;;;13.82;;
47259;SDS011;32999;52.412;4.890;2022-10-31T15:17:57;21.65;;;11.93;;
47259;SDS011;32999;52.412;4.890;2022-10-31T15:23:00;23.15;;;12.65;;
47259;SDS011;32999;52.412;4.890;2022-10-31T15:28:12;26.65;;;12.70;;
47259;SDS011;32999;52.412;4.890;2022-10-31T15:33:19;27.25;;;15.75;;
47259;SDS011;32999;52.412;4.890;2022-10-31T15:38:23;25.25;;;13.88;;
47259;SDS011;32999;52.412;4.890;2022-10-31T15:43:25;26.70;;;14.02;;
47259;SDS011;32999;52.412;4.890;2022-10-31T15:48:31;27.30;;;13.60;;
47259;SDS011;32999;52.412;4.890;2022-10-31T15:53:35;23.63;;;12.80;;
47259;SDS011;32999;52.412;4.890;2022-10-31T15:58:43;25.20;;;12.82;;
47259;SDS011;32999;52.412;4.890;2022-10-31T16:03:58;22.00;;;11.50;;
47259;SDS011;32999;52.412;4.890;2022-10-31T16:09:01;25.75;;;12.40;;
47259;SDS011;32999;52.412;4.890;2022-10-31T16:14:05;33.72;;;14.35;;
47259;SDS011;32999;52.412;4.890;2022-10-31T16:19:18;26.80;;;12.93;;
47259;SDS011;32999;52.412;4.890;2022-10-31T16:24:45;29.87;;;13.17;;
47259;SDS011;32999;52.412;4.890;2022-10-31T16:29:49;29.15;;;13.00;;
47259;SDS011;32999;52.412;4.890;2022-10-31T16:34:58;28.92;;;12.15;;
47259;SDS011;32999;52.412;4.890;2022-10-31T16:40:02;27.35;;;13.23;;
47259;SDS011;32999;52.412;4.890;2022-10-31T16:45:06;25.38;;;12.88;;
47259;SDS011;32999;52.412;4.890;2022-10-31T16:50:22;29.67;;;13.77;;
47259;SDS011;32999;52.412;4.890;2022-10-31T16:55:25;29.08;;;13.10;;
47259;SDS011;32999;52.412;4.890;2022-10-31T17:00:29;26.70;;;13.05;;
47259;SDS011;32999;52.412;4.890;2022-10-31T17:05:32;34.03;;;13.43;;
47259;SDS011;32999;52.412;4.890;2022-10-31T17:10:34;24.70;;;13.80;;
47259;SDS011;32999;52.412;4.890;2022-10-31T17:15:37;29.45;;;13.55;;
47259;SDS011;32999;52.412;4.890;2022-10-31T17:20:44;26.70;;;13.95;;
47259;SDS011;32999;52.412;4.890;2022-10-31T17:25:47;30.87;;;13.47;;
47259;SDS011;32999;52.412;4.890;2022-10-31T17:30:48;29.80;;;14.73;;
47259;SDS011;32999;52.412;4.890;2022-10-31T17:35:51;29.40;;;14.70;;
47259;SDS011;32999;52.412;4.890;2022-10-31T17:40:53;28.80;;;14.52;;
47259;SDS011;32999;52.412;4.890;2022-10-31T17:45:57;32.65;;;15.15;;
47259;SDS011;32999;52.412;4.890;2022-10-31T17:51:01;33.50;;;15.48;;
47259;SDS011;32999;52.412;4.890;2022-10-31T17:56:05;33.70;;;15.27;;
47259;SDS011;32999;52.412;4.890;2022-10-31T18:01:08;34.97;;;15.40;;
47259;SDS011;32999;52.412;4.890;2022-10-31T18:06:20;31.80;;;15.52;;
47259;SDS011;32999;52.412;4.890;2022-10-31T18:11:22;31.35;;;15.02;;
47259;SDS011;32999;52.412;4.890;2022-10-31T18:16:24;32.88;;;16.35;;
47259;SDS011;32999;52.412;4.890;2022-10-31T18:21:28;29.40;;;14.95;;
47259;SDS011;32999;52.412;4.890;2022-10-31T18:26:30;28.77;;;14.70;;
47259;SDS011;32999;52.412;4.890;2022-10-31T18:31:32;32.05;;;15.38;;
47259;SDS011;32999;52.412;4.890;2022-10-31T18:36:35;35.17;;;15.40;;
47259;SDS011;32999;52.412;4.890;2022-10-31T18:41:37;34.42;;;17.23;;
47259;SDS011;32999;52.412;4.890;2022-10-31T18:46:39;35.17;;;15.85;;
47259;SDS011;32999;52.412;4.890;2022-10-31T18:51:42;38.47;;;16.65;;
47259;SDS011;32999;52.412;4.890;2022-10-31T18:56:44;31.73;;;15.93;;
47259;SDS011;32999;52.412;4.890;2022-10-31T19:01:45;38.28;;;16.73;;
47259;SDS011;32999;52.412;4.890;2022-10-31T19:06:48;32.42;;;17.63;;
47259;SDS011;32999;52.412;4.890;2022-10-31T19:11:50;36.08;;;14.93;;
47259;SDS011;32999;52.412;4.890;2022-10-31T19:16:52;34.90;;;15.35;;
47259;SDS011;32999;52.412;4.890;2022-10-31T19:21:55;32.88;;;15.75;;
47259;SDS011;32999;52.412;4.890;2022-10-31T19:27:02;38.42;;;17.08;;
47259;SDS011;32999;52.412;4.890;2022-10-31T19:32:04;33.60;;;15.57;;
47259;SDS011;32999;52.412;4.890;2022-10-31T19:37:07;35.70;;;14.13;;
47259;SDS011;32999;52.412;4.890;2022-10-31T19:42:10;33.10;;;15.20;;
47259;SDS011;32999;52.412;4.890;2022-10-31T19:47:12;31.25;;;14.52;;
47259;SDS011;32999;52.412;4.890;2022-10-31T19:52:15;39.15;;;15.40;;
47259;SDS011;32999;52.412;4.890;2022-10-31T19:57:17;27.38;;;13.45;;
47259;SDS011;32999;52.412;4.890;2022-10-31T20:02:19;25.88;;;11.73;;
47259;SDS011;32999;52.412;4.890;2022-10-31T20:07:22;25.05;;;11.82;;
47259;SDS011;32999;52.412;4.890;2022-10-31T20:12:24;23.88;;;11.00;;
47259;SDS011;32999;52.412;4.890;2022-10-31T20:17:25;20.63;;;9.85;;
47259;SDS011;32999;52.412;4.890;2022-10-31T20:22:28;17.27;;;9.32;;
47259;SDS011;32999;52.412;4.890;2022-10-31T20:27:30;19.60;;;8.43;;
47259;SDS011;32999;52.412;4.890;2022-10-31T20:32:32;17.77;;;8.27;;
47259;SDS011;32999;52.412;4.890;2022-10-31T20:37:35;15.15;;;7.47;;
47259;SDS011;32999;52.412;4.890;2022-10-31T20:42:37;18.10;;;7.57;;
47259;SDS011;32999;52.412;4.890;2022-10-31T20:47:39;24.38;;;7.97;;
47259;SDS011;32999;52.412;4.890;2022-10-31T20:52:42;26.35;;;9.63;;
47259;SDS011;32999;52.412;4.890;2022-10-31T20:57:44;16.83;;;6.53;;
47259;SDS011;32999;52.412;4.890;2022-10-31T21:02:45;15.25;;;5.35;;
47259;SDS011;32999;52.412;4.890;2022-10-31T21:07:49;13.80;;;5.90;;
47259;SDS011;32999;52.412;4.890;2022-10-31T21:12:51;11.18;;;5.32;;
47259;SDS011;32999;52.412;4.890;2022-10-31T21:17:53;23.92;;;6.15;;
47259;SDS011;32999;52.412;4.890;2022-10-31T21:22:56;15.15;;;5.63;;
47259;SDS011;32999;52.412;4.890;2022-10-31T21:27:58;12.38;;;4.93;;
47259;SDS011;32999;52.412;4.890;2022-10-31T21:32:59;19.00;;;6.60;;
47259;SDS011;32999;52.412;4.890;2022-10-31T21:38:02;10.85;;;4.07;;
47259;SDS011;32999;52.412;4.890;2022-10-31T21:43:04;17.92;;;5.28;;
47259;SDS011;32999;52.412;4.890;2022-10-31T21:48:06;11.90;;;4.63;;
47259;SDS011;32999;52.412;4.890;2022-10-31T21:58:55;14.73;;;4.82;;
47259;SDS011;32999;52.412;4.890;2022-10-31T22:03:58;12.85;;;5.10;;
47259;SDS011;32999;52.412;4.890;2022-10-31T22:09:02;17.30;;;5.78;;
47259;SDS011;32999;52.412;4.890;2022-10-31T22:14:05;14.85;;;4.82;;
47259;SDS011;32999;52.412;4.890;2022-10-31T22:19:09;8.70;;;4.65;;
47259;SDS011;32999;52.412;4.890;2022-10-31T22:24:13;12.93;;;5.07;;
47259;SDS011;32999;52.412;4.890;2022-10-31T22:29:16;10.57;;;5.35;;
47259;SDS011;32999;52.412;4.890;2022-10-31T22:34:19;9.93;;;4.72;;
47259;SDS011;32999;52.412;4.890;2022-10-31T22:39:22;10.98;;;3.83;;
47259;SDS011;32999;52.412;4.890;2022-10-31T22:44:24;14.20;;;3.80;;
47259;SDS011;32999;52.412;4.890;2022-10-31T22:49:25;10.40;;;4.65;;
47259;SDS011;32999;52.412;4.890;2022-10-31T22:54:28;10.95;;;4.10;;
47259;SDS011;32999;52.412;4.890;2022-10-31T22:59:31;10.18;;;4.30;;
47259;SDS011;32999;52.412;4.890;2022-10-31T23:04:32;8.63;;;3.83;;
47259;SDS011;32999;52.412;4.890;2022-10-31T23:09:36;11.20;;;4.00;;
47259;SDS011;32999;52.412;4.890;2022-10-31T23:14:37;10.23;;;3.88;;
47259;SDS011;32999;52.412;4.890;2022-10-31T23:19:39;13.77;;;4.93;;
47259;SDS011;32999;52.412;4.890;2022-10-31T23:24:42;11.25;;;4.28;;
47259;SDS011;32999;52.412;4.890;2022-10-31T23:34:49;12.77;;;4.63;;
47259;SDS011;32999;52.412;4.890;2022-10-31T23:39:54;8.05;;;3.97;;
47259;SDS011;32999;52.412;4.890;2022-10-31T23:44:56;11.52;;;4.45;;
47259;SDS011;32999;52.412;4.890;2022-10-31T23:49:58;18.42;;;4.80;;
47259;SDS011;32999;52.412;4.890;2022-10-31T23:55:01;8.52;;;4.90;;
